Time,TemperatureF,DewpointF,PressureIn,WindDirection,WindDirectionDegrees,WindSpeedMPH,WindSpeedGustMPH,Humidity,HourlyPrecipIn,Conditions,Clouds,dailyrainin,SoftwareType,DateUTC
2013-05-08 00:00:00,43.0,-99.9,-100.00,North,-999,-999.0,-999.0,-999,-99.99,,,0.00,,2013-05-08 07:00:00,
2013-05-08 00:52:00,43.0,-99.9,-100.00,North,-999,-999.0,-999.0,-999,-99.99,,,0.00,,2013-05-08 07:52:00,
2013-05-08 02:00:00,42.0,-99.9,-100.00,NE,49,6.0,10.0,-999,-99.99,,,0.00,,2013-05-08 09:00:00,
2013-05-08 03:00:00,38.0,-99.9,-100.00,NNE,30,6.0,9.0,-999,-99.99,,,0.00,,2013-05-08 10:00:00,
2013-05-08 04:00:00,38.0,-99.9,-100.00,NNE,23,8.0,10.0,-999,-99.99,,,0.00,,2013-05-08 11:00:00,
2013-05-08 05:00:00,38.0,-99.9,-100.00,NNE,26,8.0,11.0,-999,-99.99,,,-99.99,,2013-05-08 12:00:00,
2013-05-08 06:00:00,40.0,-99.9,-100.00,NNE,31,8.0,10.0,-999,-99.99,,,0.00,,2013-05-08 13:00:00,
2013-05-08 07:00:00,44.0,-99.9,-100.00,NE,37,7.0,9.0,-999,-99.99,,,-99.99,,2013-05-08 14:00:00,
2013-05-08 08:00:00,47.0,-99.9,-100.00,NNE,26,7.0,10.0,-999,-99.99,,,-99.99,,2013-05-08 15:00:00,
2013-05-08 09:00:00,53.0,-99.9,-100.00,NNE,20,7.0,10.0,-999,-99.99,,,-99.99,,2013-05-08 16:00:00,
2013-05-08 10:00:00,56.0,-99.9,-100.00,West,281,3.0,8.0,-999,-99.99,,,0.00,,2013-05-08 17:00:00,
2013-05-08 11:00:00,58.0,-99.9,-100.00,SSE,156,2.0,5.0,-999,-99.99,,,0.00,,2013-05-08 18:00:00,
2013-05-08 12:00:00,62.0,-99.9,-100.00,SSW,194,2.0,8.0,-999,-99.99,,,0.00,,2013-05-08 19:00:00,
2013-05-08 13:00:00,60.0,-99.9,-100.00,NW,312,4.0,9.0,-999,-99.99,,,0.00,,2013-05-08 20:00:00,
2013-05-08 14:00:00,69.0,-99.9,-100.00,WNW,298,4.0,9.0,-999,-99.99,,,0.01,,2013-05-08 21:00:00,
2013-05-08 15:00:00,62.0,-99.9,-100.00,WNW,303,6.0,13.0,-999,-99.99,,,-99.99,,2013-05-08 22:00:00,
2013-05-08 16:00:00,62.0,-99.9,-100.00,NNW,335,7.0,12.0,-999,-99.99,,,-99.99,,2013-05-08 23:00:00,
2013-05-08 16:42:00,62.0,-99.9,-100.00,NNW,335,7.0,12.0,-999,-99.99,,,-99.99,,2013-05-08 23:42:00,
2013-05-08 16:53:00,62.0,-99.9,-100.00,NNW,335,7.0,12.0,-999,-99.99,,,-99.99,,2013-05-08 23:53:00,
2013-05-08 17:00:00,61.0,-99.9,-100.00,NW,320,7.0,12.0,-999,-99.99,,,-99.99,,2013-05-09 00:00:00,
2013-05-08 17:42:00,61.0,-99.9,-100.00,NW,320,7.0,12.0,-999,-99.99,,,-99.99,,2013-05-09 00:42:00,
2013-05-08 17:52:00,61.0,-99.9,-100.00,NW,320,7.0,12.0,-999,-99.99,,,-99.99,,2013-05-09 00:52:00,
2013-05-08 18:00:00,59.0,-99.9,-100.00,NW,309,9.0,15.0,-999,-99.99,,,-99.99,,2013-05-09 01:00:00,
2013-05-08 18:42:00,59.0,-99.9,-100.00,NW,309,9.0,15.0,-999,-99.99,,,-99.99,,2013-05-09 01:42:00,
2013-05-08 18:53:00,59.0,-99.9,-100.00,NW,309,9.0,15.0,-999,-99.99,,,-99.99,,2013-05-09 01:53:00,
2013-05-08 19:00:00,59.0,-99.9,-100.00,NNW,327,6.0,12.0,-999,-99.99,,,-99.99,,2013-05-09 02:00:00,
2013-05-08 20:00:00,53.0,-99.9,-100.00,NNW,339,5.0,10.0,-999,-99.99,,,0.00,,2013-05-09 03:00:00,
2013-05-08 20:53:00,53.0,-99.9,-100.00,NNW,339,5.0,10.0,-999,-99.99,,,0.00,,2013-05-09 03:53:00,
2013-05-08 21:00:00,49.0,-99.9,-100.00,ENE,57,4.0,7.0,-999,-99.99,,,0.00,,2013-05-09 04:00:00,
2013-05-08 22:00:00,47.0,-99.9,-100.00,NE,52,4.0,7.0,-999,-99.99,,,0.00,,2013-05-09 05:00:00,
2013-05-08 22:43:00,47.0,-99.9,-100.00,NE,52,4.0,7.0,-999,-99.99,,,0.00,,2013-05-09 05:43:00,
2013-05-08 22:52:00,47.0,-99.9,-100.00,NE,52,4.0,7.0,-999,-99.99,,,0.00,,2013-05-09 05:52:00,
2013-05-08 23:00:00,45.0,-99.9,-100.00,ENE,74,2.0,6.0,-999,-99.99,,,0.00,,2013-05-09 06:00:00,